Aérodrome :
LOGIN :

S'inscrire | Disclaimer

   EN    FR    IT 

 










Légende :    VFR   VFR Marginal   IFR   IFR Intensif   IFR Très Intensif
Visi : 
Plafond : 
>= 8 km
>= 3000ft
5 à 8 km
1000 à 3000 ft
1500m à 5 km
500 à 1000 ft
800 à 1500m
200 à 500 ft
< 800m
< 200 ft
Symboles :   Orages  Brouillard  Fortes neiges  Fortes précipitations  Vent > 20 kt
SIGMETs :   Divers  Orages  Givrage  Turbulence  Onde Orograph.  Cendres Volcan.






- Altitude de l'aérodrome : 404 ft
- Code IATA : WRO


EPWR - Wroclaw

DERNIER METAR :
  • 220100Z 29004KT 9999 MIFG NSC 09/09 Q1022

METARs EXPIRÉS :
  • 220030Z 30004KT CAVOK 11/10 Q1022
  • 220000Z 30007KT CAVOK 11/10 Q1022
  • 212330Z 29006KT 9999 MIFG NSC 12/11 Q1021
  • 212300Z 30003KT 9999 MIFG NSC 11/11 Q1021
  • 212230Z 29004KT 9999 MIFG NSC 10/10 Q1021

TAF TAF EPWR
Valide du 22 à 00h jusqu'au 23 à 00h UTC


212330Z 2200/2224 VRB02KT CAVOK
BECMG 2200/2203 0800 FG
TEMPO 2200/2207 0300 FG BKN001
BECMG 2206/2209 CAVOK
BECMG 2221/2223 2000 BR



MET'MAP, la Météo Aéronautique d'un coup d'oeil ! - Copyright ORBIFLY Décembre 2007 - Disclaimer

ORBIFLY MET'MAP TEAM :

Programmation & Développement : Alexandra Zaïnal
Conception & Développement : Baudouin d'Aumeries
Co-Programmation & Développement : Marc-Olivier Méhu
Soutien technique & logistique : Manuel Goepfert

Contact : metmap@orbifly.com




SOURCES & CREDITS :

   NOAA